»·PEaware :: N2009X KEUG-KPSC

N2009X :: KEUG-KPSC

FLIGHT INFORMATION

Flight Status: Arrived
Operator: Privately registered:
United States
More flights under this callsign
Pilot: Ryan L. (18770)
Aircraft: PIPER PA-44 SEMINOLE
(PA44)
More flights by this aircraft type
Origin: KEUG Mahlon Sweet
United States
Destination: KPSC Tri-Cities
United States
More flights between these airports :: More routes between these airports
Route: +EUG9 MOBIL V269 DSD V536 PDT V298 GAWWY
File this flight plan on PilotEdge
Remarks: You might hear a dog barking. Don't worry, she's a CFII
Altitude:
(Current/Filed)
11,000ft
Speed:
(Current/Filed)
150kts
Departed: 28-Aug-18 04:54 PM
Arrived: 28-Aug-18 06:27 PM
Distance/Time
Traveled:
216nm/1:33
Distance/Time
To Go:
Arrived

Flight Plot

Page will automatically refresh every two minutes.

Flight plan parsing failed; only flown route is shown


Map Options




Map Legend


Flown Route
Filed Route
Departure Airport
Arrival Airport
Navaid (VOR, NDB)
Fix

Horizontal Profiles

Position Reports

Time Latitude Longitude Heading Altitude Ground
Speed
28-Aug-18 16:35 44.121259 -123.213034 209 367ft 0kts
28-Aug-18 16:36 44.121258 -123.213034 209 367ft 0kts
28-Aug-18 16:37 44.121258 -123.213034 209 367ft 0kts
28-Aug-18 16:38 44.121258 -123.213034 209 367ft 0kts
28-Aug-18 16:39 44.121258 -123.213034 209 367ft 0kts
28-Aug-18 16:40 44.121258 -123.213034 209 367ft 0kts
28-Aug-18 16:41 44.121258 -123.213034 209 367ft 0kts
28-Aug-18 16:42 44.121258 -123.213034 209 367ft 0kts
28-Aug-18 16:43 44.121258 -123.213034 209 367ft 0kts
28-Aug-18 16:44 44.121258 -123.213034 209 367ft 0kts
28-Aug-18 16:45 44.121258 -123.213034 209 367ft 0kts
28-Aug-18 16:46 44.121258 -123.213034 209 367ft 0kts
28-Aug-18 16:47 44.121258 -123.213034 209 367ft 0kts
28-Aug-18 16:48 44.121076 -123.213423 249 367ft 5kts
28-Aug-18 16:49 44.120241 -123.215592 211 366ft 10kts
28-Aug-18 16:50 44.118593 -123.215978 207 369ft 7kts
28-Aug-18 16:51 44.115000 -123.216892 180 369ft 15kts
28-Aug-18 16:52 44.113659 -123.217446 266 368ft 0kts
28-Aug-18 16:53 44.113659 -123.217446 266 368ft 0kts
28-Aug-18 16:54 44.113662 -123.218105 274 366ft 11kts
28-Aug-18 16:55 44.119563 -123.219410 3 438ft 89kts
28-Aug-18 16:56 44.153565 -123.223772 357 1353ft 139kts
28-Aug-18 16:57 44.188778 -123.228493 358 2263ft 142kts
28-Aug-18 16:58 44.221208 -123.232881 358 3099ft 141kts
28-Aug-18 16:59 44.242797 -123.195439 91 4359ft 143kts
28-Aug-18 17:00 44.240622 -123.140811 87 5461ft 139kts
28-Aug-18 17:01 44.240023 -123.096311 86 6378ft 137kts
28-Aug-18 17:02 44.239694 -123.044369 86 7474ft 133kts
28-Aug-18 17:03 44.239410 -122.993519 87 8576ft 129kts
28-Aug-18 17:04 44.239129 -122.943831 89 9672ft 129kts
28-Aug-18 17:05 44.238810 -122.894847 91 10691ft 125kts
28-Aug-18 17:06 44.238431 -122.841429 91 11012ft 156kts
28-Aug-18 17:07 44.238385 -122.777876 89 11009ft 168kts
28-Aug-18 17:08 44.239435 -122.711873 89 11008ft 170kts
28-Aug-18 17:09 44.240434 -122.646729 89 11008ft 171kts
28-Aug-18 17:10 44.241406 -122.580858 89 11008ft 171kts
28-Aug-18 17:11 44.242343 -122.514688 89 11008ft 171kts
28-Aug-18 17:12 44.269904 -122.464654 40 11000ft 174kts
28-Aug-18 17:13 44.307222 -122.421722 40 10999ft 174kts
28-Aug-18 17:14 44.342925 -122.376441 53 11004ft 173kts
28-Aug-18 17:15 44.364864 -122.319223 67 11022ft 172kts
28-Aug-18 17:16 44.374899 -122.255576 98 11037ft 171kts
28-Aug-18 17:17 44.367147 -122.189868 100 11061ft 171kts
28-Aug-18 17:18 44.359004 -122.124433 100 11083ft 172kts
28-Aug-18 17:19 44.350974 -122.060595 100 11094ft 172kts
28-Aug-18 17:20 44.343245 -121.999491 100 11103ft 172kts
28-Aug-18 17:21 44.334860 -121.933520 100 11108ft 172kts
28-Aug-18 17:22 44.326366 -121.867023 100 11012ft 176kts
28-Aug-18 17:23 44.317829 -121.800491 100 11008ft 173kts
28-Aug-18 17:24 44.309312 -121.734437 100 11008ft 172kts
28-Aug-18 17:25 44.300787 -121.668640 100 11008ft 172kts
28-Aug-18 17:26 44.292373 -121.603995 100 11008ft 172kts
28-Aug-18 17:27 44.283884 -121.539079 100 11008ft 172kts
28-Aug-18 17:28 44.275270 -121.473515 100 11008ft 172kts
28-Aug-18 17:29 44.266591 -121.407757 100 11008ft 172kts
28-Aug-18 17:30 44.258087 -121.343627 100 11008ft 172kts
28-Aug-18 17:31 44.267045 -121.282549 51 11009ft 174kts
28-Aug-18 17:32 44.298730 -121.231516 50 11009ft 174kts
28-Aug-18 17:33 44.330871 -121.180751 49 11009ft 174kts
28-Aug-18 17:34 44.363205 -121.129723 50 11009ft 176kts
28-Aug-18 17:35 44.395800 -121.078162 48 11009ft 180kts
28-Aug-18 17:36 44.429241 -121.025229 48 11009ft 181kts
28-Aug-18 17:37 44.462500 -120.972491 47 11009ft 180kts
28-Aug-18 17:38 44.495503 -120.920079 47 11009ft 179kts
28-Aug-18 17:39 44.528532 -120.867506 47 11009ft 179kts
28-Aug-18 17:40 44.561385 -120.815110 47 11000ft 179kts
28-Aug-18 17:41 44.593322 -120.764081 47 11000ft 179kts
28-Aug-18 17:42 44.626065 -120.711669 47 11000ft 179kts
28-Aug-18 17:43 44.658945 -120.658935 47 11000ft 179kts
28-Aug-18 17:44 44.691697 -120.606312 47 11000ft 179kts
28-Aug-18 17:45 44.722957 -120.555994 47 11000ft 179kts
28-Aug-18 17:46 44.755720 -120.503159 47 11000ft 179kts
28-Aug-18 17:47 44.788390 -120.450376 47 11000ft 179kts
28-Aug-18 17:48 44.821078 -120.397466 47 10990ft 179kts
28-Aug-18 17:49 44.852755 -120.346096 48 10972ft 180kts
28-Aug-18 17:50 44.885550 -120.292817 48 10953ft 179kts
28-Aug-18 17:51 44.918130 -120.239784 48 10934ft 179kts
28-Aug-18 17:52 44.950714 -120.186644 48 10922ft 179kts
28-Aug-18 17:53 44.976440 -120.144600 48 10921ft 178kts
28-Aug-18 17:54 45.001771 -120.103147 48 10927ft 178kts
28-Aug-18 17:55 45.033978 -120.050365 47 10935ft 177kts
28-Aug-18 17:56 45.066022 -119.997760 47 10943ft 176kts
28-Aug-18 17:57 45.097700 -119.945662 47 10946ft 174kts
28-Aug-18 17:58 45.128162 -119.895472 47 10945ft 173kts
28-Aug-18 17:59 45.166066 -119.856322 24 10945ft 171kts
28-Aug-18 18:00 45.209133 -119.828020 24 10480ft 173kts
28-Aug-18 18:01 45.249780 -119.801264 24 9745ft 175kts
28-Aug-18 18:02 45.292988 -119.772771 24 9437ft 174kts
28-Aug-18 18:03 45.337851 -119.743140 24 8840ft 179kts
28-Aug-18 18:04 45.383247 -119.713101 24 8242ft 180kts
28-Aug-18 18:05 45.428658 -119.682999 24 7645ft 181kts
28-Aug-18 18:06 45.474394 -119.652628 24 7044ft 181kts
28-Aug-18 18:07 45.517603 -119.623884 24 6478ft 182kts
28-Aug-18 18:08 45.563489 -119.593317 24 5879ft 183kts
28-Aug-18 18:09 45.609139 -119.562830 24 5509ft 174kts
28-Aug-18 18:10 45.653447 -119.533199 24 5509ft 178kts
28-Aug-18 18:11 45.698281 -119.503160 24 5509ft 178kts
28-Aug-18 18:12 45.743351 -119.472910 24 5508ft 178kts
28-Aug-18 18:13 45.787420 -119.443302 25 5490ft 177kts
28-Aug-18 18:14 45.831752 -119.413424 25 5232ft 186kts
28-Aug-18 18:15 45.879085 -119.381489 25 4731ft 190kts
28-Aug-18 18:16 45.925407 -119.350224 25 4244ft 190kts
28-Aug-18 18:17 45.971601 -119.318982 25 3761ft 191kts
28-Aug-18 18:18 46.016965 -119.282965 30 3507ft 180kts
28-Aug-18 18:19 46.058707 -119.247649 30 3505ft 160kts
28-Aug-18 18:20 46.092213 -119.219102 30 3508ft 126kts
28-Aug-18 18:21 46.119175 -119.194681 42 3512ft 119kts
28-Aug-18 18:22 46.142358 -119.159561 48 3261ft 121kts
28-Aug-18 18:23 46.161525 -119.120045 58 3279ft 108kts
28-Aug-18 18:24 46.196312 -119.098939 28 2751ft 171kts
28-Aug-18 18:25 46.218407 -119.069645 38 2162ft 86kts
28-Aug-18 18:26 46.236801 -119.077190 316 1279ft 73kts
28-Aug-18 18:27 46.251287 -119.096872 318 674ft 67kts
28-Aug-18 18:28 46.262369 -119.111978 18 405ft 4kts
28-Aug-18 18:29 46.262673 -119.110866 69 406ft 0kts

Navigation Log

Ident Type
Flight plan parsing failed, navigation log unavailable